sensor_id;sensor_type;location;lat;lon;timestamp;P1;durP1;ratioP1;P2;durP2;ratioP2
14094;SDS011;18096;48.142;16.290;2023-08-07T00:00:21;1.15;;;0.40;;
14094;SDS011;18096;48.142;16.290;2023-08-07T00:02:47;1.70;;;0.50;;
14094;SDS011;18096;48.142;16.290;2023-08-07T00:05:13;0.60;;;0.45;;
14094;SDS011;18096;48.142;16.290;2023-08-07T00:07:39;2.10;;;0.50;;
14094;SDS011;18096;48.142;16.290;2023-08-07T00:10:05;2.90;;;0.50;;
14094;SDS011;18096;48.142;16.290;2023-08-07T00:12:31;1.60;;;0.50;;
14094;SDS011;18096;48.142;16.290;2023-08-07T00:14:57;1.60;;;0.60;;
14094;SDS011;18096;48.142;16.290;2023-08-07T00:17:22;0.50;;;0.40;;
14094;SDS011;18096;48.142;16.290;2023-08-07T00:19:48;0.70;;;0.40;;
14094;SDS011;18096;48.142;16.290;2023-08-07T00:22:14;1.30;;;0.70;;
14094;SDS011;18096;48.142;16.290;2023-08-07T00:24:39;1.40;;;0.50;;
14094;SDS011;18096;48.142;16.290;2023-08-07T00:27:05;0.50;;;0.50;;
14094;SDS011;18096;48.142;16.290;2023-08-07T00:29:31;0.80;;;0.50;;
14094;SDS011;18096;48.142;16.290;2023-08-07T00:31:57;1.90;;;0.60;;
14094;SDS011;18096;48.142;16.290;2023-08-07T00:34:23;0.80;;;0.50;;
14094;SDS011;18096;48.142;16.290;2023-08-07T00:36:49;0.50;;;0.50;;
14094;SDS011;18096;48.142;16.290;2023-08-07T00:39:15;1.90;;;0.60;;
14094;SDS011;18096;48.142;16.290;2023-08-07T00:41:41;0.50;;;0.50;;
14094;SDS011;18096;48.142;16.290;2023-08-07T00:44:06;0.50;;;0.50;;
14094;SDS011;18096;48.142;16.290;2023-08-07T00:46:32;0.43;;;0.43;;
14094;SDS011;18096;48.142;16.290;2023-08-07T00:48:57;0.60;;;0.60;;
14094;SDS011;18096;48.142;16.290;2023-08-07T00:51:23;1.60;;;0.70;;
14094;SDS011;18096;48.142;16.290;2023-08-07T00:53:49;2.20;;;0.60;;
14094;SDS011;18096;48.142;16.290;2023-08-07T00:56:16;0.75;;;0.63;;
14094;SDS011;18096;48.142;16.290;2023-08-07T00:58:42;1.88;;;0.50;;
14094;SDS011;18096;48.142;16.290;2023-08-07T01:01:08;0.50;;;0.40;;
14094;SDS011;18096;48.142;16.290;2023-08-07T01:03:33;0.40;;;0.40;;
14094;SDS011;18096;48.142;16.290;2023-08-07T01:05:59;0.50;;;0.50;;
14094;SDS011;18096;48.142;16.290;2023-08-07T01:08:26;0.60;;;0.57;;
14094;SDS011;18096;48.142;16.290;2023-08-07T01:19:25;0.60;;;0.40;;
14094;SDS011;18096;48.142;16.290;2023-08-07T01:24:37;0.70;;;0.50;;
14094;SDS011;18096;48.142;16.290;2023-08-07T01:27:51;2.40;;;0.90;;
14094;SDS011;18096;48.142;16.290;2023-08-07T01:33:10;0.77;;;0.60;;
14094;SDS011;18096;48.142;16.290;2023-08-07T01:35:53;2.10;;;0.50;;
14094;SDS011;18096;48.142;16.290;2023-08-07T01:38:21;3.30;;;0.60;;
14094;SDS011;18096;48.142;16.290;2023-08-07T01:40:49;0.88;;;0.50;;
14094;SDS011;18096;48.142;16.290;2023-08-07T01:43:16;1.87;;;0.60;;
14094;SDS011;18096;48.142;16.290;2023-08-07T01:45:44;1.08;;;0.82;;
14094;SDS011;18096;48.142;16.290;2023-08-07T01:48:09;0.60;;;0.57;;
14094;SDS011;18096;48.142;16.290;2023-08-07T01:50:36;2.20;;;0.60;;
14094;SDS011;18096;48.142;16.290;2023-08-07T01:53:03;2.80;;;0.50;;
14094;SDS011;18096;48.142;16.290;2023-08-07T01:55:29;0.90;;;0.65;;
14094;SDS011;18096;48.142;16.290;2023-08-07T01:57:54;1.50;;;0.60;;
14094;SDS011;18096;48.142;16.290;2023-08-07T02:00:20;1.35;;;0.70;;
14094;SDS011;18096;48.142;16.290;2023-08-07T02:02:46;1.25;;;0.90;;
14094;SDS011;18096;48.142;16.290;2023-08-07T02:05:12;0.90;;;0.90;;
14094;SDS011;18096;48.142;16.290;2023-08-07T02:07:40;1.53;;;0.67;;
14094;SDS011;18096;48.142;16.290;2023-08-07T02:10:06;3.60;;;0.60;;
14094;SDS011;18096;48.142;16.290;2023-08-07T02:12:32;3.15;;;0.70;;
14094;SDS011;18096;48.142;16.290;2023-08-07T02:14:58;2.80;;;0.60;;
14094;SDS011;18096;48.142;16.290;2023-08-07T02:17:25;1.60;;;0.70;;
14094;SDS011;18096;48.142;16.290;2023-08-07T02:19:51;1.00;;;0.70;;
14094;SDS011;18096;48.142;16.290;2023-08-07T02:22:17;0.80;;;0.70;;
14094;SDS011;18096;48.142;16.290;2023-08-07T02:24:42;1.60;;;0.60;;
14094;SDS011;18096;48.142;16.290;2023-08-07T02:27:08;0.70;;;0.60;;
14094;SDS011;18096;48.142;16.290;2023-08-07T02:29:33;1.03;;;0.93;;
14094;SDS011;18096;48.142;16.290;2023-08-07T02:32:02;0.80;;;0.60;;
14094;SDS011;18096;48.142;16.290;2023-08-07T02:34:29;1.80;;;0.70;;
14094;SDS011;18096;48.142;16.290;2023-08-07T02:36:55;1.20;;;0.60;;
14094;SDS011;18096;48.142;16.290;2023-08-07T02:39:21;1.35;;;0.50;;
14094;SDS011;18096;48.142;16.290;2023-08-07T02:41:47;1.90;;;0.60;;
14094;SDS011;18096;48.142;16.290;2023-08-07T02:44:13;2.80;;;0.90;;
14094;SDS011;18096;48.142;16.290;2023-08-07T02:46:39;0.73;;;0.73;;
14094;SDS011;18096;48.142;16.290;2023-08-07T02:49:04;1.10;;;0.60;;
14094;SDS011;18096;48.142;16.290;2023-08-07T02:51:30;1.60;;;0.90;;
14094;SDS011;18096;48.142;16.290;2023-08-07T02:53:57;0.60;;;0.50;;
14094;SDS011;18096;48.142;16.290;2023-08-07T02:56:22;0.80;;;0.60;;
14094;SDS011;18096;48.142;16.290;2023-08-07T02:58:48;1.10;;;0.67;;
14094;SDS011;18096;48.142;16.290;2023-08-07T03:01:14;2.70;;;0.70;;
14094;SDS011;18096;48.142;16.290;2023-08-07T03:03:39;2.93;;;0.63;;
14094;SDS011;18096;48.142;16.290;2023-08-07T03:06:05;0.70;;;0.70;;
14094;SDS011;18096;48.142;16.290;2023-08-07T03:08:30;1.20;;;0.67;;
14094;SDS011;18096;48.142;16.290;2023-08-07T03:10:57;1.15;;;0.52;;
14094;SDS011;18096;48.142;16.290;2023-08-07T03:13:23;0.50;;;0.50;;
14094;SDS011;18096;48.142;16.290;2023-08-07T03:15:50;0.60;;;0.60;;
14094;SDS011;18096;48.142;16.290;2023-08-07T03:18:23;8.50;;;0.70;;
14094;SDS011;18096;48.142;16.290;2023-08-07T03:20:49;0.50;;;0.50;;
14094;SDS011;18096;48.142;16.290;2023-08-07T03:23:14;1.53;;;0.60;;
14094;SDS011;18096;48.142;16.290;2023-08-07T03:25:40;2.63;;;0.57;;
14094;SDS011;18096;48.142;16.290;2023-08-07T03:28:05;0.50;;;0.50;;
14094;SDS011;18096;48.142;16.290;2023-08-07T03:30:31;0.70;;;0.60;;
14094;SDS011;18096;48.142;16.290;2023-08-07T03:32:57;0.70;;;0.60;;
14094;SDS011;18096;48.142;16.290;2023-08-07T03:35:22;1.55;;;0.60;;
14094;SDS011;18096;48.142;16.290;2023-08-07T03:37:48;1.20;;;0.60;;
14094;SDS011;18096;48.142;16.290;2023-08-07T03:40:14;0.60;;;0.55;;
14094;SDS011;18096;48.142;16.290;2023-08-07T03:42:39;0.55;;;0.50;;
14094;SDS011;18096;48.142;16.290;2023-08-07T03:45:05;0.50;;;0.50;;
14094;SDS011;18096;48.142;16.290;2023-08-07T03:47:31;3.80;;;0.60;;
14094;SDS011;18096;48.142;16.290;2023-08-07T03:49:57;0.60;;;0.60;;
14094;SDS011;18096;48.142;16.290;2023-08-07T03:52:22;2.50;;;0.50;;
14094;SDS011;18096;48.142;16.290;2023-08-07T03:54:48;0.98;;;0.63;;
14094;SDS011;18096;48.142;16.290;2023-08-07T03:57:13;0.70;;;0.60;;
14094;SDS011;18096;48.142;16.290;2023-08-07T03:59:39;0.70;;;0.70;;
14094;SDS011;18096;48.142;16.290;2023-08-07T04:02:05;0.90;;;0.60;;
14094;SDS011;18096;48.142;16.290;2023-08-07T04:04:30;0.40;;;0.40;;
14094;SDS011;18096;48.142;16.290;2023-08-07T04:06:56;0.60;;;0.50;;
14094;SDS011;18096;48.142;16.290;2023-08-07T04:09:22;6.70;;;0.80;;
14094;SDS011;18096;48.142;16.290;2023-08-07T04:11:47;1.80;;;0.50;;
14094;SDS011;18096;48.142;16.290;2023-08-07T04:14:13;1.00;;;0.50;;
14094;SDS011;18096;48.142;16.290;2023-08-07T04:16:38;2.00;;;0.60;;
14094;SDS011;18096;48.142;16.290;2023-08-07T04:19:04;0.70;;;0.70;;
14094;SDS011;18096;48.142;16.290;2023-08-07T04:21:32;4.38;;;0.50;;
14094;SDS011;18096;48.142;16.290;2023-08-07T04:23:58;10.70;;;1.40;;
14094;SDS011;18096;48.142;16.290;2023-08-07T04:26:25;3.78;;;0.70;;
14094;SDS011;18096;48.142;16.290;2023-08-07T04:28:51;0.47;;;0.40;;
14094;SDS011;18096;48.142;16.290;2023-08-07T04:31:17;1.00;;;0.60;;
14094;SDS011;18096;48.142;16.290;2023-08-07T04:33:42;1.90;;;0.50;;
14094;SDS011;18096;48.142;16.290;2023-08-07T04:36:09;0.47;;;0.40;;
14094;SDS011;18096;48.142;16.290;2023-08-07T04:38:35;1.30;;;0.70;;
14094;SDS011;18096;48.142;16.290;2023-08-07T04:41:00;1.20;;;0.40;;
14094;SDS011;18096;48.142;16.290;2023-08-07T04:43:26;0.40;;;0.40;;
14094;SDS011;18096;48.142;16.290;2023-08-07T04:45:52;0.50;;;0.50;;
14094;SDS011;18096;48.142;16.290;2023-08-07T04:48:18;0.90;;;0.40;;
14094;SDS011;18096;48.142;16.290;2023-08-07T04:50:45;0.85;;;0.40;;
14094;SDS011;18096;48.142;16.290;2023-08-07T04:53:11;0.40;;;0.40;;
14094;SDS011;18096;48.142;16.290;2023-08-07T04:55:37;0.50;;;0.50;;
14094;SDS011;18096;48.142;16.290;2023-08-07T04:58:03;1.25;;;0.40;;
14094;SDS011;18096;48.142;16.290;2023-08-07T05:00:29;3.15;;;1.13;;
14094;SDS011;18096;48.142;16.290;2023-08-07T05:02:54;0.60;;;0.50;;
14094;SDS011;18096;48.142;16.290;2023-08-07T05:05:20;0.50;;;0.50;;
14094;SDS011;18096;48.142;16.290;2023-08-07T05:07:47;1.30;;;0.43;;
14094;SDS011;18096;48.142;16.290;2023-08-07T05:10:13;0.60;;;0.40;;
14094;SDS011;18096;48.142;16.290;2023-08-07T05:12:39;0.50;;;0.50;;
14094;SDS011;18096;48.142;16.290;2023-08-07T05:15:04;4.20;;;0.50;;
14094;SDS011;18096;48.142;16.290;2023-08-07T05:17:31;1.90;;;0.40;;
14094;SDS011;18096;48.142;16.290;2023-08-07T05:19:57;0.40;;;0.40;;
14094;SDS011;18096;48.142;16.290;2023-08-07T05:22:22;0.70;;;0.50;;
14094;SDS011;18096;48.142;16.290;2023-08-07T05:24:48;1.00;;;0.50;;
14094;SDS011;18096;48.142;16.290;2023-08-07T05:27:14;0.40;;;0.30;;
14094;SDS011;18096;48.142;16.290;2023-08-07T05:29:40;0.40;;;0.40;;
14094;SDS011;18096;48.142;16.290;2023-08-07T05:32:12;0.40;;;0.40;;
14094;SDS011;18096;48.142;16.290;2023-08-07T05:34:38;0.40;;;0.30;;
14094;SDS011;18096;48.142;16.290;2023-08-07T05:37:04;5.17;;;0.60;;
14094;SDS011;18096;48.142;16.290;2023-08-07T05:39:31;0.70;;;0.40;;
14094;SDS011;18096;48.142;16.290;2023-08-07T05:41:57;0.60;;;0.40;;
14094;SDS011;18096;48.142;16.290;2023-08-07T05:44:25;0.40;;;0.40;;
14094;SDS011;18096;48.142;16.290;2023-08-07T05:46:51;0.40;;;0.40;;
14094;SDS011;18096;48.142;16.290;2023-08-07T05:49:17;0.40;;;0.30;;
14094;SDS011;18096;48.142;16.290;2023-08-07T05:51:43;1.80;;;0.30;;
14094;SDS011;18096;48.142;16.290;2023-08-07T05:54:08;1.30;;;0.30;;
14094;SDS011;18096;48.142;16.290;2023-08-07T05:56:34;0.40;;;0.30;;
14094;SDS011;18096;48.142;16.290;2023-08-07T05:59:00;0.40;;;0.30;;
14094;SDS011;18096;48.142;16.290;2023-08-07T06:01:26;2.40;;;0.80;;
14094;SDS011;18096;48.142;16.290;2023-08-07T06:03:55;0.40;;;0.40;;
14094;SDS011;18096;48.142;16.290;2023-08-07T06:06:25;0.40;;;0.30;;
14094;SDS011;18096;48.142;16.290;2023-08-07T06:08:53;0.80;;;0.50;;
14094;SDS011;18096;48.142;16.290;2023-08-07T06:11:21;0.50;;;0.40;;
14094;SDS011;18096;48.142;16.290;2023-08-07T06:13:48;0.40;;;0.30;;
14094;SDS011;18096;48.142;16.290;2023-08-07T06:16:14;1.30;;;0.40;;
14094;SDS011;18096;48.142;16.290;2023-08-07T06:18:39;0.40;;;0.30;;
14094;SDS011;18096;48.142;16.290;2023-08-07T06:21:05;2.00;;;0.50;;
14094;SDS011;18096;48.142;16.290;2023-08-07T06:23:32;0.40;;;0.40;;
14094;SDS011;18096;48.142;16.290;2023-08-07T06:25:58;0.60;;;0.60;;
14094;SDS011;18096;48.142;16.290;2023-08-07T06:28:24;0.60;;;0.40;;
14094;SDS011;18096;48.142;16.290;2023-08-07T06:30:49;0.40;;;0.30;;
14094;SDS011;18096;48.142;16.290;2023-08-07T06:33:15;0.60;;;0.40;;
14094;SDS011;18096;48.142;16.290;2023-08-07T06:35:41;0.43;;;0.40;;
14094;SDS011;18096;48.142;16.290;2023-08-07T06:38:07;0.50;;;0.40;;
14094;SDS011;18096;48.142;16.290;2023-08-07T06:40:37;0.50;;;0.40;;
14094;SDS011;18096;48.142;16.290;2023-08-07T06:43:03;6.10;;;0.40;;
14094;SDS011;18096;48.142;16.290;2023-08-07T06:45:28;3.40;;;0.30;;
14094;SDS011;18096;48.142;16.290;2023-08-07T06:47:54;0.40;;;0.40;;
14094;SDS011;18096;48.142;16.290;2023-08-07T06:50:21;0.40;;;0.40;;
14094;SDS011;18096;48.142;16.290;2023-08-07T06:52:46;3.00;;;0.47;;
14094;SDS011;18096;48.142;16.290;2023-08-07T06:55:12;6.20;;;0.50;;
14094;SDS011;18096;48.142;16.290;2023-08-07T06:57:37;0.40;;;0.40;;
14094;SDS011;18096;48.142;16.290;2023-08-07T07:00:04;0.40;;;0.40;;
14094;SDS011;18096;48.142;16.290;2023-08-07T07:02:30;0.40;;;0.40;;
14094;SDS011;18096;48.142;16.290;2023-08-07T07:04:57;0.80;;;0.50;;
14094;SDS011;18096;48.142;16.290;2023-08-07T07:07:22;2.00;;;0.50;;
14094;SDS011;18096;48.142;16.290;2023-08-07T07:09:48;1.30;;;0.40;;
14094;SDS011;18096;48.142;16.290;2023-08-07T07:12:14;1.90;;;0.40;;
14094;SDS011;18096;48.142;16.290;2023-08-07T07:14:39;1.90;;;0.60;;
14094;SDS011;18096;48.142;16.290;2023-08-07T07:17:05;1.30;;;0.40;;
14094;SDS011;18096;48.142;16.290;2023-08-07T07:19:30;0.40;;;0.40;;
14094;SDS011;18096;48.142;16.290;2023-08-07T07:21:56;1.10;;;0.60;;
14094;SDS011;18096;48.142;16.290;2023-08-07T07:24:21;3.00;;;0.50;;
14094;SDS011;18096;48.142;16.290;2023-08-07T07:26:47;2.10;;;0.50;;
14094;SDS011;18096;48.142;16.290;2023-08-07T07:29:13;1.40;;;0.50;;
14094;SDS011;18096;48.142;16.290;2023-08-07T07:31:38;2.00;;;0.50;;
14094;SDS011;18096;48.142;16.290;2023-08-07T07:34:04;3.00;;;0.40;;
14094;SDS011;18096;48.142;16.290;2023-08-07T07:36:29;0.40;;;0.40;;
14094;SDS011;18096;48.142;16.290;2023-08-07T07:38:55;0.40;;;0.40;;
14094;SDS011;18096;48.142;16.290;2023-08-07T07:41:21;0.57;;;0.40;;
14094;SDS011;18096;48.142;16.290;2023-08-07T07:43:47;0.40;;;0.40;;
14094;SDS011;18096;48.142;16.290;2023-08-07T07:46:13;0.50;;;0.40;;
14094;SDS011;18096;48.142;16.290;2023-08-07T07:48:38;0.45;;;0.40;;
14094;SDS011;18096;48.142;16.290;2023-08-07T07:51:04;0.90;;;0.52;;
14094;SDS011;18096;48.142;16.290;2023-08-07T07:53:30;4.47;;;0.50;;
14094;SDS011;18096;48.142;16.290;2023-08-07T07:55:56;0.70;;;0.40;;
14094;SDS011;18096;48.142;16.290;2023-08-07T07:58:21;1.30;;;0.40;;
14094;SDS011;18096;48.142;16.290;2023-08-07T08:00:48;0.40;;;0.40;;
14094;SDS011;18096;48.142;16.290;2023-08-07T08:03:13;8.70;;;0.60;;
14094;SDS011;18096;48.142;16.290;2023-08-07T08:05:39;0.50;;;0.50;;
14094;SDS011;18096;48.142;16.290;2023-08-07T08:08:05;0.45;;;0.45;;
14094;SDS011;18096;48.142;16.290;2023-08-07T08:10:32;0.80;;;0.50;;
14094;SDS011;18096;48.142;16.290;2023-08-07T08:12:59;0.50;;;0.50;;
14094;SDS011;18096;48.142;16.290;2023-08-07T08:15:25;0.77;;;0.50;;
14094;SDS011;18096;48.142;16.290;2023-08-07T08:17:50;2.10;;;0.40;;
14094;SDS011;18096;48.142;16.290;2023-08-07T08:20:16;0.40;;;0.40;;
14094;SDS011;18096;48.142;16.290;2023-08-07T08:22:43;2.45;;;0.40;;
14094;SDS011;18096;48.142;16.290;2023-08-07T08:25:09;0.60;;;0.50;;
14094;SDS011;18096;48.142;16.290;2023-08-07T08:27:36;3.80;;;0.50;;
14094;SDS011;18096;48.142;16.290;2023-08-07T08:30:02;0.80;;;0.50;;
14094;SDS011;18096;48.142;16.290;2023-08-07T08:32:29;0.98;;;0.50;;
14094;SDS011;18096;48.142;16.290;2023-08-07T08:34:54;1.00;;;0.60;;
14094;SDS011;18096;48.142;16.290;2023-08-07T08:37:20;1.95;;;1.10;;
14094;SDS011;18096;48.142;16.290;2023-08-07T08:39:46;0.90;;;0.68;;
14094;SDS011;18096;48.142;16.290;2023-08-07T08:42:12;1.30;;;0.60;;
14094;SDS011;18096;48.142;16.290;2023-08-07T08:44:39;0.50;;;0.50;;
14094;SDS011;18096;48.142;16.290;2023-08-07T08:47:06;1.88;;;0.80;;
14094;SDS011;18096;48.142;16.290;2023-08-07T08:49:35;1.20;;;0.50;;
14094;SDS011;18096;48.142;16.290;2023-08-07T08:52:05;0.70;;;0.70;;
14094;SDS011;18096;48.142;16.290;2023-08-07T08:54:32;1.40;;;0.60;;
14094;SDS011;18096;48.142;16.290;2023-08-07T08:56:58;0.70;;;0.60;;
14094;SDS011;18096;48.142;16.290;2023-08-07T08:59:25;8.90;;;0.70;;
14094;SDS011;18096;48.142;16.290;2023-08-07T09:01:51;1.15;;;0.60;;
14094;SDS011;18096;48.142;16.290;2023-08-07T09:04:18;1.40;;;0.50;;
14094;SDS011;18096;48.142;16.290;2023-08-07T09:06:44;1.30;;;0.45;;
14094;SDS011;18096;48.142;16.290;2023-08-07T09:09:10;1.60;;;0.70;;
14094;SDS011;18096;48.142;16.290;2023-08-07T09:11:38;1.13;;;0.70;;
14094;SDS011;18096;48.142;16.290;2023-08-07T09:14:06;1.50;;;0.60;;
14094;SDS011;18096;48.142;16.290;2023-08-07T09:16:34;1.00;;;0.80;;
14094;SDS011;18096;48.142;16.290;2023-08-07T09:19:01;1.70;;;0.90;;
14094;SDS011;18096;48.142;16.290;2023-08-07T09:21:27;0.73;;;0.73;;
14094;SDS011;18096;48.142;16.290;2023-08-07T09:23:53;0.60;;;0.60;;
14094;SDS011;18096;48.142;16.290;2023-08-07T09:26:22;0.70;;;0.70;;
14094;SDS011;18096;48.142;16.290;2023-08-07T09:28:50;0.60;;;0.60;;
14094;SDS011;18096;48.142;16.290;2023-08-07T09:31:19;1.20;;;0.50;;
14094;SDS011;18096;48.142;16.290;2023-08-07T09:33:48;0.73;;;0.50;;
14094;SDS011;18096;48.142;16.290;2023-08-07T09:36:14;0.57;;;0.57;;
14094;SDS011;18096;48.142;16.290;2023-08-07T09:38:40;0.60;;;0.60;;
14094;SDS011;18096;48.142;16.290;2023-08-07T09:41:05;5.40;;;0.60;;
14094;SDS011;18096;48.142;16.290;2023-08-07T09:43:34;5.90;;;0.70;;
14094;SDS011;18096;48.142;16.290;2023-08-07T09:46:06;1.70;;;0.70;;
14094;SDS011;18096;48.142;16.290;2023-08-07T09:48:38;2.20;;;1.10;;
14094;SDS011;18096;48.142;16.290;2023-08-07T09:51:05;1.50;;;0.60;;
14094;SDS011;18096;48.142;16.290;2023-08-07T09:53:31;1.88;;;0.90;;
14094;SDS011;18096;48.142;16.290;2023-08-07T09:55:56;0.50;;;0.50;;
14094;SDS011;18096;48.142;16.290;2023-08-07T09:58:23;1.88;;;0.60;;
14094;SDS011;18096;48.142;16.290;2023-08-07T10:00:49;0.60;;;0.60;;
14094;SDS011;18096;48.142;16.290;2023-08-07T10:03:15;1.35;;;0.60;;
14094;SDS011;18096;48.142;16.290;2023-08-07T10:05:44;0.93;;;0.60;;
14094;SDS011;18096;48.142;16.290;2023-08-07T10:08:10;0.70;;;0.70;;
14094;SDS011;18096;48.142;16.290;2023-08-07T10:10:37;2.70;;;0.70;;
14094;SDS011;18096;48.142;16.290;2023-08-07T10:13:03;0.70;;;0.70;;
14094;SDS011;18096;48.142;16.290;2023-08-07T10:15:30;0.70;;;0.70;;
14094;SDS011;18096;48.142;16.290;2023-08-07T10:17:58;1.20;;;0.80;;
14094;SDS011;18096;48.142;16.290;2023-08-07T10:20:27;0.70;;;0.68;;
14094;SDS011;18096;48.142;16.290;2023-08-07T10:22:53;0.60;;;0.50;;
14094;SDS011;18096;48.142;16.290;2023-08-07T10:25:24;0.70;;;0.50;;
14094;SDS011;18096;48.142;16.290;2023-08-07T10:27:52;0.50;;;0.50;;
14094;SDS011;18096;48.142;16.290;2023-08-07T10:30:20;1.02;;;0.80;;
14094;SDS011;18096;48.142;16.290;2023-08-07T10:32:49;0.80;;;0.80;;
14094;SDS011;18096;48.142;16.290;2023-08-07T10:35:25;0.65;;;0.60;;
14094;SDS011;18096;48.142;16.290;2023-08-07T10:37:55;1.00;;;0.80;;
14094;SDS011;18096;48.142;16.290;2023-08-07T10:43:25;1.23;;;0.70;;
14094;SDS011;18096;48.142;16.290;2023-08-07T10:45:53;0.90;;;0.70;;
14094;SDS011;18096;48.142;16.290;2023-08-07T10:48:19;2.30;;;0.70;;
14094;SDS011;18096;48.142;16.290;2023-08-07T10:51:07;0.50;;;0.50;;
14094;SDS011;18096;48.142;16.290;2023-08-07T10:53:36;0.60;;;0.60;;
14094;SDS011;18096;48.142;16.290;2023-08-07T10:56:11;0.80;;;0.70;;
14094;SDS011;18096;48.142;16.290;2023-08-07T10:58:41;0.60;;;0.60;;
14094;SDS011;18096;48.142;16.290;2023-08-07T11:01:27;0.90;;;0.80;;
14094;SDS011;18096;48.142;16.290;2023-08-07T11:03:57;2.20;;;0.80;;
14094;SDS011;18096;48.142;16.290;2023-08-07T11:06:32;1.00;;;0.70;;
14094;SDS011;18096;48.142;16.290;2023-08-07T11:08:59;0.60;;;0.60;;
14094;SDS011;18096;48.142;16.290;2023-08-07T11:11:29;0.88;;;0.88;;
14094;SDS011;18096;48.142;16.290;2023-08-07T11:14:04;1.00;;;0.60;;
14094;SDS011;18096;48.142;16.290;2023-08-07T11:16:41;0.63;;;0.60;;
14094;SDS011;18096;48.142;16.290;2023-08-07T11:19:07;0.60;;;0.60;;
14094;SDS011;18096;48.142;16.290;2023-08-07T11:21:33;1.40;;;0.80;;
14094;SDS011;18096;48.142;16.290;2023-08-07T11:24:00;1.27;;;0.90;;
14094;SDS011;18096;48.142;16.290;2023-08-07T11:26:26;2.60;;;0.70;;
14094;SDS011;18096;48.142;16.290;2023-08-07T11:28:53;1.40;;;0.70;;
14094;SDS011;18096;48.142;16.290;2023-08-07T11:31:19;0.70;;;0.70;;
14094;SDS011;18096;48.142;16.290;2023-08-07T11:33:46;1.65;;;0.60;;
14094;SDS011;18096;48.142;16.290;2023-08-07T11:36:13;1.60;;;0.80;;
14094;SDS011;18096;48.142;16.290;2023-08-07T11:38:42;0.75;;;0.75;;
14094;SDS011;18096;48.142;16.290;2023-08-07T11:41:10;2.70;;;0.70;;
14094;SDS011;18096;48.142;16.290;2023-08-07T11:43:38;0.90;;;0.60;;
14094;SDS011;18096;48.142;16.290;2023-08-07T11:46:05;2.30;;;0.80;;
14094;SDS011;18096;48.142;16.290;2023-08-07T11:48:33;1.15;;;1.02;;
14094;SDS011;18096;48.142;16.290;2023-08-07T11:51:00;2.42;;;1.05;;
14094;SDS011;18096;48.142;16.290;2023-08-07T11:53:31;0.60;;;0.60;;
14094;SDS011;18096;48.142;16.290;2023-08-07T11:55:58;1.30;;;0.80;;
14094;SDS011;18096;48.142;16.290;2023-08-07T11:58:25;1.10;;;0.85;;
14094;SDS011;18096;48.142;16.290;2023-08-07T12:01:13;0.80;;;0.75;;
14094;SDS011;18096;48.142;16.290;2023-08-07T12:03:41;1.00;;;1.00;;
14094;SDS011;18096;48.142;16.290;2023-08-07T12:06:08;0.80;;;0.80;;
14094;SDS011;18096;48.142;16.290;2023-08-07T12:08:35;1.40;;;0.90;;
14094;SDS011;18096;48.142;16.290;2023-08-07T12:11:11;2.70;;;1.00;;
14094;SDS011;18096;48.142;16.290;2023-08-07T12:13:42;1.10;;;0.75;;
14094;SDS011;18096;48.142;16.290;2023-08-07T12:16:08;0.70;;;0.70;;
14094;SDS011;18096;48.142;16.290;2023-08-07T12:18:34;0.90;;;0.80;;
14094;SDS011;18096;48.142;16.290;2023-08-07T12:21:06;0.95;;;0.90;;
14094;SDS011;18096;48.142;16.290;2023-08-07T12:23:33;0.90;;;0.90;;
14094;SDS011;18096;48.142;16.290;2023-08-07T12:26:00;1.10;;;0.90;;
14094;SDS011;18096;48.142;16.290;2023-08-07T12:28:26;1.30;;;0.80;;
14094;SDS011;18096;48.142;16.290;2023-08-07T12:30:52;1.30;;;0.90;;
14094;SDS011;18096;48.142;16.290;2023-08-07T12:33:18;0.75;;;0.70;;
14094;SDS011;18096;48.142;16.290;2023-08-07T12:35:44;1.00;;;0.90;;
14094;SDS011;18096;48.142;16.290;2023-08-07T12:38:10;1.00;;;0.80;;
14094;SDS011;18096;48.142;16.290;2023-08-07T12:40:38;1.00;;;0.90;;
14094;SDS011;18096;48.142;16.290;2023-08-07T12:43:04;1.20;;;0.80;;
14094;SDS011;18096;48.142;16.290;2023-08-07T12:45:30;2.17;;;1.10;;
14094;SDS011;18096;48.142;16.290;2023-08-07T12:47:56;0.88;;;0.88;;
14094;SDS011;18096;48.142;16.290;2023-08-07T12:50:21;0.93;;;0.93;;
14094;SDS011;18096;48.142;16.290;2023-08-07T12:52:47;1.30;;;1.10;;
14094;SDS011;18096;48.142;16.290;2023-08-07T12:55:13;1.20;;;1.00;;
14094;SDS011;18096;48.142;16.290;2023-08-07T12:57:41;0.90;;;0.90;;
14094;SDS011;18096;48.142;16.290;2023-08-07T13:00:08;2.30;;;0.70;;
14094;SDS011;18096;48.142;16.290;2023-08-07T13:02:38;3.90;;;1.02;;
14094;SDS011;18096;48.142;16.290;2023-08-07T13:05:05;1.05;;;0.90;;
14094;SDS011;18096;48.142;16.290;2023-08-07T13:07:31;1.50;;;1.00;;
14094;SDS011;18096;48.142;16.290;2023-08-07T13:09:56;0.80;;;0.80;;
14094;SDS011;18096;48.142;16.290;2023-08-07T13:12:22;2.30;;;1.50;;
14094;SDS011;18096;48.142;16.290;2023-08-07T13:14:48;2.90;;;1.00;;
14094;SDS011;18096;48.142;16.290;2023-08-07T13:17:13;1.10;;;0.97;;
14094;SDS011;18096;48.142;16.290;2023-08-07T13:19:39;1.70;;;1.13;;
14094;SDS011;18096;48.142;16.290;2023-08-07T13:22:05;1.10;;;1.00;;
14094;SDS011;18096;48.142;16.290;2023-08-07T13:24:32;0.98;;;0.90;;
14094;SDS011;18096;48.142;16.290;2023-08-07T13:26:57;1.40;;;1.30;;
14094;SDS011;18096;48.142;16.290;2023-08-07T13:29:23;2.50;;;1.17;;
14094;SDS011;18096;48.142;16.290;2023-08-07T13:31:51;0.90;;;0.90;;
14094;SDS011;18096;48.142;16.290;2023-08-07T13:34:16;1.03;;;0.93;;
14094;SDS011;18096;48.142;16.290;2023-08-07T13:36:42;2.53;;;1.00;;
14094;SDS011;18096;48.142;16.290;2023-08-07T13:39:07;0.90;;;0.90;;
14094;SDS011;18096;48.142;16.290;2023-08-07T13:41:34;1.00;;;1.00;;
14094;SDS011;18096;48.142;16.290;2023-08-07T13:44:00;1.50;;;0.90;;
14094;SDS011;18096;48.142;16.290;2023-08-07T13:46:26;0.82;;;0.70;;
14094;SDS011;18096;48.142;16.290;2023-08-07T13:48:52;2.10;;;0.90;;
14094;SDS011;18096;48.142;16.290;2023-08-07T13:51:19;0.90;;;0.80;;
14094;SDS011;18096;48.142;16.290;2023-08-07T13:53:45;2.87;;;1.10;;
14094;SDS011;18096;48.142;16.290;2023-08-07T13:56:11;1.70;;;0.90;;
14094;SDS011;18096;48.142;16.290;2023-08-07T13:58:38;0.90;;;0.70;;
14094;SDS011;18096;48.142;16.290;2023-08-07T14:01:05;1.38;;;1.15;;
14094;SDS011;18096;48.142;16.290;2023-08-07T14:03:31;4.60;;;1.58;;
14094;SDS011;18096;48.142;16.290;2023-08-07T14:05:57;1.57;;;1.10;;
14094;SDS011;18096;48.142;16.290;2023-08-07T14:08:24;1.25;;;0.98;;
14094;SDS011;18096;48.142;16.290;2023-08-07T14:10:50;2.30;;;1.13;;
14094;SDS011;18096;48.142;16.290;2023-08-07T14:13:17;1.20;;;1.00;;
14094;SDS011;18096;48.142;16.290;2023-08-07T14:15:43;1.85;;;1.42;;
14094;SDS011;18096;48.142;16.290;2023-08-07T14:18:10;1.88;;;1.23;;
14094;SDS011;18096;48.142;16.290;2023-08-07T14:20:38;0.90;;;0.90;;
14094;SDS011;18096;48.142;16.290;2023-08-07T14:23:03;1.00;;;1.00;;
14094;SDS011;18096;48.142;16.290;2023-08-07T14:25:29;2.13;;;1.40;;
14094;SDS011;18096;48.142;16.290;2023-08-07T14:27:55;1.60;;;1.10;;
14094;SDS011;18096;48.142;16.290;2023-08-07T14:30:20;1.10;;;1.00;;
14094;SDS011;18096;48.142;16.290;2023-08-07T14:32:46;1.40;;;1.30;;
14094;SDS011;18096;48.142;16.290;2023-08-07T14:35:12;3.58;;;1.00;;
14094;SDS011;18096;48.142;16.290;2023-08-07T14:37:39;2.83;;;1.00;;
14094;SDS011;18096;48.142;16.290;2023-08-07T14:40:05;1.25;;;1.00;;
14094;SDS011;18096;48.142;16.290;2023-08-07T14:42:31;1.23;;;1.13;;
14094;SDS011;18096;48.142;16.290;2023-08-07T14:44:57;1.00;;;1.00;;
14094;SDS011;18096;48.142;16.290;2023-08-07T14:47:23;2.50;;;1.20;;